createdAt,value
2017-07-07T00:00:02.381Z,66.93
2017-07-07T00:01:12.654Z,66.84
2017-07-07T00:02:22.946Z,66.55
2017-07-07T00:03:33.467Z,66.84
2017-07-07T00:04:43.404Z,66.36
2017-07-07T00:05:53.683Z,66.93
2017-07-07T00:07:03.950Z,66.84
2017-07-07T00:08:13.585Z,66.61
2017-07-07T00:09:23.778Z,66.84
2017-07-07T00:10:33.418Z,66.71
2017-07-07T00:11:43.360Z,66.71
2017-07-07T00:12:53.685Z,66.71
2017-07-07T00:14:03.956Z,66.9
2017-07-07T00:15:14.494Z,66.71
2017-07-07T00:16:24.433Z,66.61
2017-07-07T00:17:34.689Z,67.29
2017-07-07T00:18:44.971Z,67
2017-07-07T00:19:55.257Z,67
2017-07-07T00:21:05.765Z,66.8
2017-07-07T00:22:16.227Z,66.9
2017-07-07T00:23:26.492Z,67.09
2017-07-07T00:24:36.741Z,66.9
2017-07-07T00:25:46.693Z,66.9
2017-07-07T00:26:57.206Z,66.9
2017-07-07T00:28:07.464Z,66.9
2017-07-07T00:29:17.409Z,67.09
2017-07-07T00:30:27.684Z,67.29
2017-07-07T00:31:37.975Z,67.19
2017-07-07T00:32:48.499Z,67.47
2017-07-07T00:33:58.794Z,67.09
2017-07-07T00:35:08.738Z,66.9
2017-07-07T00:36:19.023Z,67.57
2017-07-07T00:37:29.305Z,67.67
2017-07-07T00:38:39.571Z,67.76
2017-07-07T00:39:49.869Z,67.57
2017-07-07T00:41:00.191Z,67.86
2017-07-07T00:42:10.481Z,67.67
2017-07-07T00:43:20.759Z,67.67
2017-07-07T00:44:30.717Z,67.67
2017-07-07T00:45:40.980Z,67.38
2017-07-07T00:46:51.255Z,67.96
2017-07-07T00:48:01.535Z,67.86
2017-07-07T00:49:11.818Z,67.96
2017-07-07T00:50:22.379Z,67.76
2017-07-07T00:51:32.653Z,67.96
2017-07-07T00:52:42.616Z,68.05
2017-07-07T00:53:52.241Z,67.76
2017-07-07T00:55:02.186Z,68.15
2017-07-07T00:56:12.695Z,68.05
2017-07-07T00:57:22.954Z,67.96
2017-07-07T00:58:33.224Z,67.86
2017-07-07T00:59:43.478Z,68.05
2017-07-07T01:00:53.743Z,68.24
2017-07-07T01:02:04.277Z,68.24
2017-07-07T01:03:14.538Z,68.53
2017-07-07T01:04:24.882Z,68.24
2017-07-07T01:05:35.145Z,68.34
2017-07-07T01:06:45.436Z,68.15
2017-07-07T01:07:55.958Z,68.24
2017-07-07T01:09:06.233Z,68.15
2017-07-07T01:10:16.496Z,68.63
2017-07-07T01:11:26.462Z,68.24
2017-07-07T01:12:36.729Z,68.91
2017-07-07T01:13:47.283Z,68.73
2017-07-07T01:14:57.232Z,68.98
2017-07-07T01:16:07.481Z,68.79
2017-07-07T01:17:17.749Z,69.01
2017-07-07T01:18:28.001Z,68.98
2017-07-07T01:19:38.212Z,69.07
2017-07-07T01:20:48.486Z,69.46
2017-07-07T01:21:58.439Z,69.36
2017-07-07T01:23:08.898Z,69.56
2017-07-07T01:24:18.862Z,69.56
2017-07-07T01:25:29.422Z,69.46
2017-07-07T01:26:39.684Z,69.36
2017-07-07T01:27:49.330Z,69.65
2017-07-07T01:28:59.295Z,69.46
2017-07-07T01:30:08.631Z,69.84
2017-07-07T01:31:19.156Z,69.26
2017-07-07T01:32:29.425Z,69.74
2017-07-07T01:33:39.698Z,69.74
2017-07-07T01:34:49.961Z,69.65
2017-07-07T01:36:00.237Z,69.56
2017-07-07T01:37:10.757Z,69.56
2017-07-07T01:38:20.707Z,69.74
2017-07-07T01:39:30.969Z,69.36
2017-07-07T01:40:41.233Z,69.74
2017-07-07T01:41:51.493Z,69.07
2017-07-07T01:43:02.014Z,69.46
2017-07-07T01:44:12.283Z,69.56
2017-07-07T01:45:22.232Z,69.17
2017-07-07T01:46:32.491Z,68.98
2017-07-07T01:47:42.766Z,69.07
2017-07-07T01:48:53.282Z,69.74
2017-07-07T01:50:03.238Z,69.26
2017-07-07T01:51:13.500Z,69.17
2017-07-07T01:52:23.768Z,69.07
2017-07-07T01:53:33.726Z,68.98
2017-07-07T01:54:44.238Z,69.17
2017-07-07T01:55:54.501Z,68.79
2017-07-07T01:57:04.456Z,68.98
2017-07-07T01:58:14.404Z,69.17
2017-07-07T01:59:24.661Z,68.98
2017-07-07T02:00:35.189Z,68.88
2017-07-07T02:01:45.471Z,68.79
2017-07-07T02:02:55.748Z,68.59
2017-07-07T02:04:06.015Z,68.79
2017-07-07T02:05:16.276Z,69.17
2017-07-07T02:06:26.794Z,68.59
2017-07-07T02:07:37.058Z,69.07
2017-07-07T02:08:47.315Z,68.98
2017-07-07T02:09:57.281Z,68.69
2017-07-07T02:11:07.562Z,69.07
2017-07-07T02:12:18.097Z,69.07
2017-07-07T02:13:28.361Z,69.07
2017-07-07T02:14:38.639Z,69.74
2017-07-07T02:15:48.907Z,69.07
2017-07-07T02:16:59.166Z,69.74
2017-07-07T02:18:09.757Z,69.74
2017-07-07T02:19:20.029Z,69.84
2017-07-07T02:20:30.308Z,69.36
2017-07-07T02:21:40.581Z,69.56
2017-07-07T02:22:50.849Z,69.36
2017-07-07T02:24:01.105Z,69.36
2017-07-07T02:25:11.359Z,69.46
2017-07-07T02:26:21.641Z,69.56
2017-07-07T02:27:31.594Z,69.56
2017-07-07T02:28:41.850Z,69.36
2017-07-07T02:29:52.061Z,69.56
2017-07-07T02:31:02.336Z,69.46
2017-07-07T02:32:12.606Z,69.56
2017-07-07T02:33:22.871Z,69.74
2017-07-07T02:34:33.131Z,69.84
2017-07-07T02:35:43.652Z,69.84
2017-07-07T02:36:53.598Z,69.56
2017-07-07T02:38:03.866Z,69.46
2017-07-07T02:39:13.815Z,69.93
2017-07-07T02:40:23.781Z,69.74
2017-07-07T02:41:33.975Z,69.36
2017-07-07T02:42:44.250Z,69.56
2017-07-07T02:43:54.194Z,69.84
2017-07-07T02:45:04.463Z,69.74
2017-07-07T02:46:14.719Z,69.84
2017-07-07T02:47:25.239Z,69.74
2017-07-07T02:48:35.503Z,70.13
2017-07-07T02:49:45.756Z,70.03
2017-07-07T02:50:56.030Z,69.93
2017-07-07T02:52:06.324Z,69.84
2017-07-07T02:53:16.854Z,69.84
2017-07-07T02:54:27.117Z,69.65
2017-07-07T02:55:37.390Z,69.74
2017-07-07T02:56:47.665Z,70.23
2017-07-07T02:57:57.937Z,70.03
2017-07-07T02:59:08.128Z,70.03
2017-07-07T03:00:18.385Z,69.84
2017-07-07T03:01:28.653Z,70.03
2017-07-07T03:02:38.615Z,70.03
2017-07-07T03:03:48.574Z,70.23
2017-07-07T03:04:59.087Z,70.23
2017-07-07T03:06:09.359Z,70.32
2017-07-07T03:07:19.636Z,70.51
2017-07-07T03:08:29.605Z,70.23
2017-07-07T03:09:39.874Z,70.51
2017-07-07T03:10:50.409Z,70.19
2017-07-07T03:12:00.684Z,70.38
2017-07-07T03:13:10.631Z,70.57
2017-07-07T03:14:20.593Z,70.38
2017-07-07T03:15:30.855Z,70.38
2017-07-07T03:16:41.085Z,70.51
2017-07-07T03:17:51.366Z,70.42
2017-07-07T03:19:01.322Z,70.51
2017-07-07T03:20:11.602Z,70.42
2017-07-07T03:21:21.862Z,70.03
2017-07-07T03:22:32.056Z,70.51
2017-07-07T03:23:42.314Z,70.61
2017-07-07T03:24:52.581Z,70.32
2017-07-07T03:26:02.525Z,70.7
2017-07-07T03:27:12.800Z,70.99
2017-07-07T03:28:23.389Z,70.9
2017-07-07T03:29:33.662Z,70.99
2017-07-07T03:30:43.925Z,70.8
2017-07-07T03:31:54.215Z,70.7
2017-07-07T03:33:04.477Z,71.19
2017-07-07T03:34:14.351Z,71.09
2017-07-07T03:35:24.597Z,70.9
2017-07-07T03:36:34.873Z,70.61
2017-07-07T03:37:45.139Z,70.7
2017-07-07T03:38:54.784Z,70.8
2017-07-07T03:40:05.307Z,70.99
2017-07-07T03:41:15.569Z,70.61
2017-07-07T03:42:25.521Z,70.7
2017-07-07T03:43:35.527Z,70.99
2017-07-07T03:44:45.476Z,70.99
2017-07-07T03:45:55.987Z,70.8
2017-07-07T03:47:06.250Z,70.7
2017-07-07T03:48:16.506Z,70.7
2017-07-07T03:49:26.777Z,71.19
2017-07-07T03:50:37.051Z,70.51
2017-07-07T03:51:47.559Z,70.8
2017-07-07T03:52:57.825Z,71.19
2017-07-07T03:54:07.772Z,70.51
2017-07-07T03:55:18.030Z,70.8
2017-07-07T03:56:27.989Z,71.19
2017-07-07T03:57:38.490Z,70.9
2017-07-07T03:58:48.773Z,70.42
2017-07-07T03:59:58.748Z,70.61
2017-07-07T04:01:09.005Z,70.99
2017-07-07T04:02:19.268Z,71.09
2017-07-07T04:03:29.788Z,70.61
2017-07-07T04:04:39.752Z,70.99
2017-07-07T04:05:49.704Z,70.9
2017-07-07T04:06:59.655Z,70.99
2017-07-07T04:08:09.907Z,70.7
2017-07-07T04:09:20.428Z,70.99
2017-07-07T04:10:30.690Z,71.09
2017-07-07T04:11:40.649Z,70.8
2017-07-07T04:12:50.915Z,70.42
2017-07-07T04:14:01.187Z,70.7
2017-07-07T04:15:11.390Z,71.09
2017-07-07T04:16:21.345Z,70.61
2017-07-07T04:17:31.301Z,70.9
2017-07-07T04:18:41.575Z,70.51
2017-07-07T04:19:51.863Z,70.64
2017-07-07T04:21:02.368Z,70.8
2017-07-07T04:22:12.638Z,70.99
2017-07-07T04:23:22.899Z,70.9
2017-07-07T04:24:33.161Z,70.51
2017-07-07T04:25:43.425Z,70.9
2017-07-07T04:26:53.973Z,70.74
2017-07-07T04:28:04.442Z,71.22
2017-07-07T04:29:14.715Z,70.84
2017-07-07T04:30:24.663Z,70.45
2017-07-07T04:31:34.926Z,71.12
2017-07-07T04:32:45.441Z,70.74
2017-07-07T04:33:55.462Z,71.03
2017-07-07T04:35:05.735Z,71.03
2017-07-07T04:36:16.003Z,71.31
2017-07-07T04:37:26.272Z,71.12
2017-07-07T04:38:36.470Z,71.22
2017-07-07T04:39:46.722Z,71.03
2017-07-07T04:40:56.991Z,71.31
2017-07-07T04:42:06.974Z,71.12
2017-07-07T04:43:17.258Z,71.22
2017-07-07T04:44:27.769Z,71.03
2017-07-07T04:45:38.050Z,71.22
2017-07-07T04:46:48.323Z,71.31
2017-07-07T04:47:58.593Z,71.95
2017-07-07T04:49:08.896Z,71.86
2017-07-07T04:50:19.394Z,72.08
2017-07-07T04:51:29.340Z,71.51
2017-07-07T04:52:39.611Z,71.86
2017-07-07T04:53:49.897Z,71.76
2017-07-07T04:55:00.164Z,71.95
2017-07-07T04:56:10.692Z,72.56
2017-07-07T04:57:20.973Z,72.63
2017-07-07T04:58:31.242Z,72.72
2017-07-07T04:59:41.491Z,72.72
2017-07-07T05:00:51.443Z,73
2017-07-07T05:02:01.946Z,72.72
2017-07-07T05:03:11.920Z,72.85
2017-07-07T05:04:22.197Z,72.72
2017-07-07T05:05:32.472Z,73
2017-07-07T05:06:42.433Z,73
2017-07-07T05:07:52.957Z,72.91
2017-07-07T05:09:03.228Z,73.77
2017-07-07T05:10:13.484Z,73.49
2017-07-07T05:11:23.755Z,73.1
2017-07-07T05:12:34.031Z,74.16
2017-07-07T05:13:44.599Z,73.3
2017-07-07T05:14:54.873Z,73.77
2017-07-07T05:16:05.141Z,73.68
2017-07-07T05:17:15.410Z,73.97
2017-07-07T05:18:25.676Z,74.73
2017-07-07T05:19:35.951Z,74.54
2017-07-07T05:20:45.891Z,75.7
2017-07-07T05:21:56.153Z,76.07
2017-07-07T05:23:06.410Z,78
2017-07-07T05:24:16.360Z,78.19
2017-07-07T05:25:26.596Z,80.26
2017-07-07T05:26:36.862Z,79.3
2017-07-07T05:27:47.134Z,80.99
2017-07-07T05:28:57.090Z,82.14
2017-07-07T05:30:06.429Z,82.14
2017-07-07T05:31:16.944Z,83.44
2017-07-07T05:32:27.213Z,84.49
2017-07-07T05:33:37.483Z,85.25
2017-07-07T05:34:47.136Z,86.5
2017-07-07T05:35:57.412Z,87.13
2017-07-07T05:37:07.921Z,86.74
2017-07-07T05:38:18.179Z,86.84
2017-07-07T05:39:28.152Z,87.41
2017-07-07T05:40:38.432Z,88.47
2017-07-07T05:41:48.711Z,88.09
2017-07-07T05:42:59.235Z,88.85
2017-07-07T05:44:09.194Z,90.09
2017-07-07T05:45:19.152Z,90
2017-07-07T05:46:29.426Z,89.81
2017-07-07T05:47:39.700Z,90.67
2017-07-07T05:48:50.273Z,89.81
2017-07-07T05:50:00.543Z,89.81
2017-07-07T05:51:10.839Z,91.72
2017-07-07T05:52:21.144Z,90.29
2017-07-07T05:53:31.423Z,90.48
2017-07-07T05:54:42.100Z,88.85
2017-07-07T05:55:52.377Z,89.9
2017-07-07T05:57:02.665Z,88.23
2017-07-07T05:58:12.952Z,90.14
2017-07-07T05:59:22.581Z,90.72
2017-07-07T06:00:33.119Z,91.29
2017-07-07T06:01:43.124Z,90.14
2017-07-07T06:02:53.426Z,90.62
2017-07-07T06:04:03.693Z,90.81
2017-07-07T06:05:13.646Z,89.57
2017-07-07T06:06:23.900Z,88.9
2017-07-07T06:07:34.171Z,89.09
2017-07-07T06:08:44.438Z,89.28
2017-07-07T06:09:54.703Z,90.05
2017-07-07T06:11:04.981Z,88.99
2017-07-07T06:12:15.560Z,87.65
2017-07-07T06:13:25.829Z,88.51
2017-07-07T06:14:36.115Z,87.46
2017-07-07T06:15:46.081Z,87.55
2017-07-07T06:16:56.362Z,87.84
2017-07-07T06:18:06.938Z,88.8
2017-07-07T06:19:16.570Z,87.46
2017-07-07T06:20:26.512Z,88.7
2017-07-07T06:21:36.482Z,89.86
2017-07-07T06:22:46.787Z,90.05
2017-07-07T06:23:57.369Z,91.29
2017-07-07T06:25:07.325Z,90.57
2017-07-07T06:26:17.593Z,91.43
2017-07-07T06:27:27.545Z,91.43
2017-07-07T06:28:37.503Z,91.43
2017-07-07T06:29:47.705Z,92.58
2017-07-07T06:30:57.983Z,92.1
2017-07-07T06:32:07.634Z,92.68
2017-07-07T06:33:17.590Z,91.43
2017-07-07T06:34:27.863Z,92.39
2017-07-07T06:35:38.105Z,91.67
2017-07-07T06:36:48.376Z,92.44
2017-07-07T06:37:58.640Z,91.67
2017-07-07T06:39:09.200Z,91.19
2017-07-07T06:40:19.523Z,91.28
2017-07-07T06:41:30.101Z,90.42
2017-07-07T06:42:40.400Z,91
2017-07-07T06:43:50.362Z,91.48
2017-07-07T06:45:00.650Z,91.57
2017-07-07T06:46:10.967Z,91
2017-07-07T06:47:21.269Z,91.09
2017-07-07T06:48:31.582Z,91.57
2017-07-07T06:49:41.847Z,92.05
2017-07-07T06:50:52.124Z,91.67
2017-07-07T06:52:02.125Z,90.81
2017-07-07T06:53:12.725Z,90.71
2017-07-07T06:54:23.037Z,91.09
2017-07-07T06:55:33.327Z,90.9
2017-07-07T06:56:43.612Z,91
2017-07-07T06:57:53.586Z,90.52
2017-07-07T06:59:04.162Z,91.48
2017-07-07T07:00:14.728Z,91.57
2017-07-07T07:01:25.010Z,92.05
2017-07-07T07:02:34.989Z,92.05
2017-07-07T07:03:45.248Z,92.34
2017-07-07T07:04:55.495Z,91.77
2017-07-07T07:06:05.137Z,91.86
2017-07-07T07:07:15.412Z,91.57
2017-07-07T07:08:25.390Z,92.82
2017-07-07T07:09:35.665Z,92.82
2017-07-07T07:10:46.245Z,91.38
2017-07-07T07:11:56.531Z,91.77
2017-07-07T07:13:06.527Z,91.48
2017-07-07T07:14:16.790Z,91.09
2017-07-07T07:15:26.759Z,91.48
2017-07-07T07:16:37.033Z,92.05
2017-07-07T07:17:47.318Z,91.63
2017-07-07T07:18:57.269Z,91.48
2017-07-07T07:20:07.232Z,91.48
2017-07-07T07:21:17.204Z,92.15
2017-07-07T07:22:27.471Z,91.43
2017-07-07T07:23:37.409Z,91.48
2017-07-07T07:24:47.678Z,91.05
2017-07-07T07:25:57.947Z,91.34
2017-07-07T07:27:08.271Z,91.43
2017-07-07T07:28:18.872Z,91.53
2017-07-07T07:29:29.145Z,91.34
2017-07-07T07:30:39.097Z,92.1
2017-07-07T07:31:49.396Z,92.39
2017-07-07T07:32:59.666Z,92.39
2017-07-07T07:34:10.253Z,92.39
2017-07-07T07:35:20.544Z,93.16
2017-07-07T07:36:30.890Z,92.68
2017-07-07T07:37:41.183Z,92.68
2017-07-07T07:38:51.452Z,92.49
2017-07-07T07:40:01.971Z,92.97
2017-07-07T07:41:11.960Z,93.35
2017-07-07T07:42:22.233Z,92.97
2017-07-07T07:43:32.507Z,92.87
2017-07-07T07:44:42.473Z,92.39
2017-07-07T07:45:52.690Z,93.16
2017-07-07T07:47:02.958Z,93.35
2017-07-07T07:48:13.308Z,93.54
2017-07-07T07:49:23.576Z,92.68
2017-07-07T07:50:33.846Z,92.87
2017-07-07T07:51:44.368Z,92.1
2017-07-07T07:52:54.642Z,92.58
2017-07-07T07:54:04.928Z,92.49
2017-07-07T07:55:15.240Z,91.53
2017-07-07T07:56:25.239Z,91.24
2017-07-07T07:57:35.811Z,92.24
2017-07-07T07:58:45.771Z,91.38
2017-07-07T07:59:56.048Z,91.57
2017-07-07T08:01:06.006Z,91.91
2017-07-07T08:02:16.273Z,91.38
2017-07-07T08:03:26.841Z,91.67
2017-07-07T08:04:36.801Z,91.77
2017-07-07T08:05:47.078Z,92.34
2017-07-07T08:06:57.013Z,92.05
2017-07-07T08:08:07.312Z,91.77
2017-07-07T08:09:17.569Z,91.38
2017-07-07T08:10:27.536Z,90.9
2017-07-07T08:11:37.815Z,91.38
2017-07-07T08:12:47.483Z,90.71
2017-07-07T08:13:57.778Z,91.28
2017-07-07T08:15:08.045Z,91.09
2017-07-07T08:16:18.327Z,91.09
2017-07-07T08:17:28.582Z,91.48
2017-07-07T08:18:38.231Z,91
2017-07-07T08:19:48.513Z,90.61
2017-07-07T08:20:58.726Z,91.48
2017-07-07T08:22:08.692Z,91.57
2017-07-07T08:23:18.956Z,90.71
2017-07-07T08:24:28.907Z,90.71
2017-07-07T08:25:38.853Z,91.86
2017-07-07T08:26:49.135Z,91.48
2017-07-07T08:27:59.396Z,91.81
2017-07-07T08:29:09.706Z,90.42
2017-07-07T08:30:19.654Z,90.52
2017-07-07T08:31:29.941Z,90.04
2017-07-07T08:32:40.529Z,90.08
2017-07-07T08:33:50.841Z,90.52
2017-07-07T08:35:01.130Z,90.75
2017-07-07T08:36:11.394Z,90.81
2017-07-07T08:37:21.045Z,91.33
2017-07-07T08:38:31.579Z,90.61
2017-07-07T08:39:41.552Z,90.61
2017-07-07T08:40:51.834Z,91.19
2017-07-07T08:42:01.786Z,91.67
2017-07-07T08:43:12.080Z,92.29
2017-07-07T08:44:22.602Z,92.58
2017-07-07T08:45:32.870Z,91.52
2017-07-07T08:46:42.853Z,91.52
2017-07-07T08:47:52.839Z,91.42
2017-07-07T08:49:03.128Z,90.85
2017-07-07T08:50:13.388Z,91.52
2017-07-07T08:51:23.652Z,91.33
2017-07-07T08:52:33.609Z,91.42
2017-07-07T08:53:43.882Z,91.91
2017-07-07T08:54:54.147Z,91.52
2017-07-07T08:56:04.746Z,91.81
2017-07-07T08:57:15.032Z,91.72
2017-07-07T08:58:25.326Z,91.42
2017-07-07T08:59:35.292Z,92.86
2017-07-07T09:00:45.256Z,91.62
2017-07-07T09:01:55.834Z,92.68
2017-07-07T09:03:06.100Z,92.34
2017-07-07T09:04:16.099Z,92.29
2017-07-07T09:05:26.372Z,91.86
2017-07-07T09:06:36.635Z,93.59
2017-07-07T09:07:46.904Z,94.26
2017-07-07T09:08:57.179Z,94.54
2017-07-07T09:10:07.470Z,93.49
2017-07-07T09:11:17.729Z,93.49
2017-07-07T09:12:27.993Z,94.74
2017-07-07T09:13:38.591Z,94.26
2017-07-07T09:14:48.884Z,94.64
2017-07-07T09:15:59.159Z,93.49
2017-07-07T09:17:09.127Z,93.3
2017-07-07T09:18:19.408Z,93.68
2017-07-07T09:19:29.940Z,93.4
2017-07-07T09:20:40.220Z,93.59
2017-07-07T09:21:50.189Z,94.07
2017-07-07T09:23:00.471Z,94.07
2017-07-07T09:24:10.963Z,93.4
2017-07-07T09:25:21.543Z,94.17
2017-07-07T09:26:31.813Z,93.59
2017-07-07T09:27:41.780Z,93.59
2017-07-07T09:28:52.047Z,94.64
2017-07-07T09:30:02.319Z,94.64
2017-07-07T09:31:12.855Z,94.64
2017-07-07T09:32:22.809Z,93.97
2017-07-07T09:33:32.755Z,93.88
2017-07-07T09:34:43.026Z,94.45
2017-07-07T09:35:53.011Z,94.54
2017-07-07T09:37:03.531Z,94.64
2017-07-07T09:38:13.485Z,94.79
2017-07-07T09:39:23.125Z,94.49
2017-07-07T09:40:33.402Z,93.73
2017-07-07T09:41:43.045Z,94.12
2017-07-07T09:42:53.627Z,93.92
2017-07-07T09:44:04.084Z,94.79
2017-07-07T09:45:14.152Z,94.69
2017-07-07T09:46:24.111Z,94.79
2017-07-07T09:47:34.395Z,94.16
2017-07-07T09:48:44.941Z,94.07
2017-07-07T09:49:55.216Z,92.63
2017-07-07T09:51:05.512Z,92.91
2017-07-07T09:52:15.809Z,91.47
2017-07-07T09:53:26.137Z,93.3
2017-07-07T09:54:36.668Z,92.82
2017-07-07T09:55:46.949Z,92.72
2017-07-07T09:56:57.246Z,93.49
2017-07-07T09:58:06.880Z,93.01
2017-07-07T09:59:17.145Z,93.59
2017-07-07T10:00:27.682Z,92.1
2017-07-07T10:01:37.652Z,91.61
2017-07-07T10:02:47.626Z,91.9
2017-07-07T10:03:57.902Z,91.61
2017-07-07T10:05:08.175Z,92.52
2017-07-07T10:06:18.422Z,92.14
2017-07-07T10:07:28.706Z,90.31
2017-07-07T10:08:38.973Z,90.8
2017-07-07T10:09:49.277Z,91.8
2017-07-07T10:10:59.561Z,90.65
2017-07-07T10:12:10.105Z,88.63
2017-07-07T10:13:20.065Z,88.44
2017-07-07T10:14:30.388Z,87.09
2017-07-07T10:15:40.379Z,87.76
2017-07-07T10:16:50.338Z,88.44
2017-07-07T10:18:00.872Z,88.24
2017-07-07T10:19:11.140Z,88.87
2017-07-07T10:20:21.408Z,88.1
2017-07-07T10:21:31.372Z,88
2017-07-07T10:22:41.667Z,87.33
2017-07-07T10:23:52.256Z,87.9
2017-07-07T10:25:02.541Z,89.83
2017-07-07T10:26:12.837Z,89.29
2017-07-07T10:27:23.121Z,90.45
2017-07-07T10:28:33.381Z,88.67
2017-07-07T10:29:43.908Z,86.78
2017-07-07T10:30:54.176Z,87.55
2017-07-07T10:32:04.460Z,82.97
2017-07-07T10:33:14.429Z,85.52
2017-07-07T10:34:24.671Z,81.85
2017-07-07T10:35:34.938Z,82.96
2017-07-07T10:36:45.226Z,81.26
2017-07-07T10:37:55.519Z,81.59
2017-07-07T10:39:05.816Z,79.41
2017-07-07T10:40:16.118Z,79.6
2017-07-07T10:41:26.703Z,78.58
2017-07-07T10:42:37.013Z,76.87
2017-07-07T10:43:47.315Z,74.4
2017-07-07T10:44:57.294Z,75.95
2017-07-07T10:46:07.584Z,75.11
2017-07-07T10:47:18.102Z,73.99
2017-07-07T10:48:28.387Z,73.79
2017-07-07T10:49:38.661Z,71.22
2017-07-07T10:50:48.945Z,72.28
2017-07-07T10:51:59.240Z,68.6
2017-07-07T10:53:09.815Z,69.41
2017-07-07T10:54:19.775Z,69.27
2017-07-07T10:55:30.117Z,70.63
2017-07-07T10:56:40.089Z,71.66
2017-07-07T10:57:50.088Z,70.7
2017-07-07T10:59:00.643Z,69.67
2017-07-07T11:00:10.651Z,69.12
2017-07-07T11:01:20.949Z,69.41
2017-07-07T11:02:30.292Z,65.75
2017-07-07T11:03:40.579Z,66.24
2017-07-07T11:04:51.159Z,65.75
2017-07-07T11:06:01.445Z,65.95
2017-07-07T11:07:11.717Z,68.54
2017-07-07T11:08:21.707Z,66.99
2017-07-07T11:09:32.007Z,67.63
2017-07-07T11:10:42.530Z,68.3
2017-07-07T11:11:52.501Z,70.01
2017-07-07T11:13:02.786Z,71.56
2017-07-07T11:14:13.062Z,68.76
2017-07-07T11:15:23.022Z,68.7
2017-07-07T11:16:33.254Z,66.2
2017-07-07T11:17:43.530Z,64.78
2017-07-07T11:18:53.494Z,63.95
2017-07-07T11:20:03.475Z,61.42
2017-07-07T11:21:13.760Z,63.98
2017-07-07T11:22:24.030Z,63.13
2017-07-07T11:23:34.338Z,58.98
2017-07-07T11:24:44.624Z,58.69
2017-07-07T11:25:54.946Z,59.15
2017-07-07T11:27:05.249Z,59.05
2017-07-07T11:28:15.474Z,60.71
2017-07-07T11:29:25.762Z,60.68
2017-07-07T11:30:35.429Z,60.31
2017-07-07T11:31:45.413Z,57.62
2017-07-07T11:32:55.720Z,57.65
2017-07-07T11:34:06.266Z,56.9
2017-07-07T11:35:16.567Z,54.79
2017-07-07T11:36:26.866Z,55.6
2017-07-07T11:37:37.160Z,56.15
2017-07-07T11:38:47.491Z,55.15
2017-07-07T11:39:58.074Z,56.2
2017-07-07T11:41:08.361Z,54.74
2017-07-07T11:42:18.338Z,55.41
2017-07-07T11:43:28.826Z,55.49
2017-07-07T11:44:39.118Z,55.29
2017-07-07T11:45:49.411Z,55.13
2017-07-07T11:46:59.730Z,53.11
2017-07-07T11:48:10.027Z,52.82
2017-07-07T11:49:20.321Z,51.26
2017-07-07T11:50:30.616Z,52.26
2017-07-07T11:51:41.225Z,49.85
2017-07-07T11:52:50.872Z,51.12
2017-07-07T11:54:01.175Z,48.97
2017-07-07T11:55:11.154Z,49.68
2017-07-07T11:56:21.127Z,48.02
2017-07-07T11:57:31.404Z,48.71
2017-07-07T11:58:41.701Z,49.07
2017-07-07T11:59:51.675Z,49.19
2017-07-07T12:01:01.977Z,47.97
2017-07-07T12:02:12.344Z,47.68
2017-07-07T12:03:22.623Z,48.14
2017-07-07T12:04:32.617Z,48.83
2017-07-07T12:05:42.925Z,47.78
2017-07-07T12:06:53.188Z,47.97
2017-07-07T12:08:03.494Z,46.41
2017-07-07T12:09:14.112Z,45.44
2017-07-07T12:10:24.403Z,46.31
2017-07-07T12:11:34.360Z,46.41
2017-07-07T12:12:44.009Z,44.95
2017-07-07T12:13:54.326Z,46.44
2017-07-07T12:15:04.611Z,46.24
2017-07-07T12:16:14.913Z,44.9
2017-07-07T12:17:25.208Z,43.92
2017-07-07T12:18:35.193Z,44.31
2017-07-07T12:19:45.512Z,43.26
2017-07-07T12:20:56.047Z,42.58
2017-07-07T12:22:06.336Z,42.09
2017-07-07T12:23:16.737Z,42.09
2017-07-07T12:24:26.703Z,43.04
2017-07-07T12:25:36.977Z,41.97
2017-07-07T12:26:47.264Z,40.8
2017-07-07T12:27:57.583Z,40.92
2017-07-07T12:29:07.856Z,40.23
2017-07-07T12:30:18.140Z,39.76
2017-07-07T12:31:28.132Z,39.67
2017-07-07T12:32:38.672Z,40.63
2017-07-07T12:33:48.642Z,41.6
2017-07-07T12:34:58.925Z,42.16
2017-07-07T12:36:09.212Z,42.73
2017-07-07T12:37:19.499Z,43.19
2017-07-07T12:38:29.764Z,43.98
2017-07-07T12:39:40.064Z,42.71
2017-07-07T12:40:50.384Z,43
2017-07-07T12:42:00.338Z,43.57
2017-07-07T12:43:10.622Z,43.66
2017-07-07T12:44:21.138Z,42.69
2017-07-07T12:45:31.103Z,42.98
2017-07-07T12:46:41.078Z,42.49
2017-07-07T12:47:51.362Z,43.1
2017-07-07T12:49:01.652Z,42.14
2017-07-07T12:50:12.231Z,42.24
2017-07-07T12:51:22.535Z,42.44
2017-07-07T12:52:32.811Z,41.75
2017-07-07T12:53:42.790Z,43.02
2017-07-07T12:54:52.756Z,42.16
2017-07-07T12:56:03.280Z,41.6
2017-07-07T12:57:13.579Z,40.63
2017-07-07T12:58:23.549Z,40.63
2017-07-07T12:59:33.501Z,40.64
2017-07-07T13:00:43.787Z,40.08
2017-07-07T13:01:54.061Z,39.88
2017-07-07T13:03:04.355Z,39.98
2017-07-07T13:04:14.640Z,39.86
2017-07-07T13:05:24.982Z,40.06
2017-07-07T13:06:35.274Z,40.16
2017-07-07T13:07:45.880Z,40.63
2017-07-07T13:08:56.171Z,41.58
2017-07-07T13:10:06.453Z,42.83
2017-07-07T13:11:16.757Z,42.98
2017-07-07T13:12:27.035Z,43.64
2017-07-07T13:13:37.645Z,43.08
2017-07-07T13:14:47.948Z,43.1
2017-07-07T13:15:58.218Z,43.1
2017-07-07T13:17:08.509Z,40.58
2017-07-07T13:18:18.781Z,41.58
2017-07-07T13:19:29.301Z,41.95
2017-07-07T13:20:39.596Z,41.27
2017-07-07T13:21:49.892Z,41.07
2017-07-07T13:22:59.858Z,41.19
2017-07-07T13:24:09.814Z,40.63
2017-07-07T13:25:20.086Z,39.37
2017-07-07T13:26:30.059Z,38.61
2017-07-07T13:27:40.359Z,38.04
2017-07-07T13:28:50.014Z,37.79
2017-07-07T13:29:59.978Z,37.02
2017-07-07T13:31:10.559Z,37.31
2017-07-07T13:32:20.535Z,36.24
2017-07-07T13:33:30.500Z,36.53
2017-07-07T13:34:40.462Z,35.25
2017-07-07T13:35:50.445Z,38
2017-07-07T13:37:00.657Z,35.65
2017-07-07T13:38:10.944Z,35.08
2017-07-07T13:39:21.233Z,34.8
2017-07-07T13:40:31.580Z,35.08
2017-07-07T13:41:41.553Z,34.86
2017-07-07T13:42:51.884Z,36.51
2017-07-07T13:44:02.173Z,36
2017-07-07T13:45:12.139Z,36.02
2017-07-07T13:46:22.429Z,36.9
2017-07-07T13:47:32.467Z,36.9
2017-07-07T13:48:43.051Z,37.39
2017-07-07T13:49:53.326Z,37.27
2017-07-07T13:51:03.294Z,37.16
2017-07-07T13:52:13.570Z,38.73
2017-07-07T13:53:23.902Z,38.49
2017-07-07T13:54:34.460Z,37.83
2017-07-07T13:55:44.433Z,37.83
2017-07-07T13:56:54.721Z,37.73
2017-07-07T13:58:05.007Z,37.93
2017-07-07T13:59:15.293Z,38.02
2017-07-07T14:00:25.516Z,36.38
2017-07-07T14:01:35.500Z,37.65
2017-07-07T14:02:45.802Z,38.02
2017-07-07T14:03:56.090Z,38.89
2017-07-07T14:05:06.376Z,38.77
2017-07-07T14:06:16.634Z,38.1
2017-07-07T14:07:26.606Z,36.77
2017-07-07T14:08:36.953Z,37.08
2017-07-07T14:09:46.904Z,36.77
2017-07-07T14:10:56.874Z,37.45
2017-07-07T14:12:07.107Z,36.38
2017-07-07T14:13:17.078Z,36
2017-07-07T14:14:27.058Z,35.42
2017-07-07T14:15:37.350Z,36.47
2017-07-07T14:16:47.324Z,37.93
2017-07-07T14:17:57.925Z,38.79
2017-07-07T14:19:08.292Z,38.79
2017-07-07T14:20:18.588Z,38.89
2017-07-07T14:21:28.551Z,39
2017-07-07T14:22:38.818Z,38.89
2017-07-07T14:23:48.713Z,38.71
2017-07-07T14:24:58.981Z,39.47
2017-07-07T14:26:09.271Z,39.18
2017-07-07T14:27:19.240Z,40.63
2017-07-07T14:28:29.521Z,39.75
2017-07-07T14:29:40.061Z,39.84
2017-07-07T14:30:50.044Z,39.47
2017-07-07T14:32:00.319Z,38.01
2017-07-07T14:33:10.275Z,38.4
2017-07-07T14:34:20.615Z,38.61
2017-07-07T14:35:31.185Z,38.81
2017-07-07T14:36:41.468Z,38.12
2017-07-07T14:37:51.772Z,37.55
2017-07-07T14:39:02.060Z,36.67
2017-07-07T14:40:12.343Z,36.38
2017-07-07T14:41:22.935Z,37.16
2017-07-07T14:42:32.960Z,37.04
2017-07-07T14:43:42.915Z,37.83
2017-07-07T14:44:53.211Z,36.1
2017-07-07T14:46:03.515Z,35.34
2017-07-07T14:47:14.047Z,35.45
2017-07-07T14:48:24.336Z,36.51
2017-07-07T14:49:34.313Z,36.24
2017-07-07T14:50:44.595Z,34.39
2017-07-07T14:51:54.887Z,33.84
2017-07-07T14:53:05.424Z,33.17
2017-07-07T14:54:15.714Z,31.23
2017-07-07T14:55:25.987Z,31.73
2017-07-07T14:56:35.678Z,31.81
2017-07-07T14:57:45.988Z,32.4
2017-07-07T14:58:56.253Z,32.57
2017-07-07T15:00:06.534Z,33.15
2017-07-07T15:01:16.537Z,33.34
2017-07-07T15:02:26.821Z,33.62
2017-07-07T15:03:37.131Z,33.33
2017-07-07T15:04:47.721Z,33.14
2017-07-07T15:05:58.005Z,32.66
2017-07-07T15:07:07.964Z,33.05
2017-07-07T15:08:18.265Z,33.9